Skip Navigation LinksHome page > Weather > Current weather Skip Navigation Links

Current Weather

Kansas City Downtown, Kansas City, Mo.

For information only: do not use for flight planning or navigation.
Latest weather
Observation time Sunday, May 26, 2019 9:54 AM CDT
Local time Sunday, May 26, 2019 10:35 AM CDT
Flight conditions Visual Meteorological Conditions
Winds
Wind direction West-Southwest (240°)
Wind speed 3 mph
Visibility 10 mi.
Sky condition
Ceiling unlimited
Cloud layer few clouds 8,000 ft.
Temperature 71°F
Dewpoint 64°F
Altimeter 30.08 in.Hg
Pressure change last 3 hours-0.04 in.Hg
Pressure rising, then falling
Derived measurements
Relative humidity 79%
Density altitude 1638 ft.
Sea-level pressure 30.06 in.Hg
Remarks
Automated weather observing station with precipitation discriminator.
METAR KMKC 261454Z 24003KT 10SM FEW080 22/18 A3008 RMK AO2 SLP178 T02170178 50015

Settings

Location code

InnerDrive.Weather 4.0.6770.0 Release CLR 4.0.30319.42000
Copyright ©2018 Inner Drive Technology. All rights reserved. Portions Copyright ©1986-2018 David Braverman.

Find weather

Site navigation


Skip Navigation Links

Place info

Page info

PayPal - The safer, easier way to pay online!

Return home.

Copyright ©2019 Inner Drive Technology. Purveyors of fine, hand-crafted computer software. Page printed 2019-05-26T15:35:02 UTC.